Time;durP1;ratioP1;P1;durP2;ratioP2;P2;SDS_P1;SDS_P2;PMS_P1;PMS_P2;Temp;Humidity;BMP_temperature;BMP_pressure;BME280_temperature;BME280_humidity;BME280_pressure;Samples;Min_cycle;Max_cycle;Signal;HPM_P1;HPM_P2
2023/07/01 00:00:42;;;;;;;8.98;2.85;;;;;;;;;;5017076;28;89248;-72
2023/07/01 00:03:08;;;;;;;12.05;2.95;;;;;;;;;;5016833;28;88855;-72
2023/07/01 00:05:34;;;;;;;16.65;3.10;;;;;;;;;;5016514;28;90341;-72
2023/07/01 00:08:01;;;;;;;6.78;2.38;;;;;;;;;;5017012;28;88088;-72
2023/07/01 00:10:28;;;;;;;7.05;2.60;;;;;;;;;;5016834;28;89012;-71
2023/07/01 00:12:54;;;;;;;8.73;2.80;;;;;;;;;;5017391;28;89364;-71
2023/07/01 00:15:20;;;;;;;10.07;2.85;;;;;;;;;;5017003;28;89065;-72
2023/07/01 00:17:47;;;;;;;7.32;2.83;;;;;;;;;;5019833;28;88752;-72
2023/07/01 00:20:14;;;;;;;5.07;2.45;;;;;;;;;;5015621;28;88807;-72
2023/07/01 00:22:40;;;;;;;8.23;2.78;;;;;;;;;;5016421;28;89546;-72
2023/07/01 00:25:07;;;;;;;12.25;2.30;;;;;;;;;;5016251;28;89040;-72
2023/07/01 00:27:33;;;;;;;8.98;2.53;;;;;;;;;;5016614;28;88035;-72
2023/07/01 00:29:59;;;;;;;17.20;2.75;;;;;;;;;;5016392;28;88770;-72
2023/07/01 00:32:26;;;;;;;5.90;2.35;;;;;;;;;;5016577;28;89566;-72
2023/07/01 00:34:53;;;;;;;10.85;2.55;;;;;;;;;;5016270;28;87928;-72
2023/07/01 00:37:19;;;;;;;8.13;2.97;;;;;;;;;;5016833;28;88859;-71
2023/07/01 00:39:46;;;;;;;7.22;2.38;;;;;;;;;;5019387;28;88793;-72
2023/07/01 00:42:12;;;;;;;7.88;2.80;;;;;;;;;;5016456;28;88838;-72
2023/07/01 00:44:38;;;;;;;8.55;2.53;;;;;;;;;;5016112;28;90249;-72
2023/07/01 00:47:05;;;;;;;9.98;2.85;;;;;;;;;;5016452;28;88389;-72
2023/07/01 00:49:32;;;;;;;10.07;2.65;;;;;;;;;;5016247;28;88833;-71
2023/07/01 00:51:59;;;;;;;4.40;2.50;;;;;;;;;;5019158;28;89142;-71
2023/07/01 00:54:26;;;;;;;12.43;2.80;;;;;;;;;;5019548;28;88086;-72
2023/07/01 00:56:52;;;;;;;13.23;2.63;;;;;;;;;;5019526;28;88763;-71
2023/07/01 00:59:19;;;;;;;7.13;2.38;;;;;;;;;;5019417;28;89203;-71
2023/07/01 01:01:47;;;;;;;6.03;2.10;;;;;;;;;;5022487;28;87238;-72
2023/07/01 01:04:18;;;;;;;7.55;2.42;;;;;;;;;;5019525;28;90015;-71
2023/07/01 01:06:49;;;;;;;5.53;2.30;;;;;;;;;;5019239;28;88013;-71
2023/07/01 01:09:20;;;;;;;11.07;2.80;;;;;;;;;;5019033;28;88865;-72
2023/07/01 01:11:47;;;;;;;8.50;2.40;;;;;;;;;;5019499;28;90320;-73
2023/07/01 01:14:15;;;;;;;8.15;2.65;;;;;;;;;;5018915;28;88064;-72
2023/07/01 01:16:42;;;;;;;7.13;2.50;;;;;;;;;;5019601;28;88770;-72
2023/07/01 01:19:12;;;;;;;12.13;3.03;;;;;;;;;;5019260;28;89114;-72
2023/07/01 01:21:38;;;;;;;10.18;2.63;;;;;;;;;;5022174;28;88017;-72
2023/07/01 01:24:06;;;;;;;7.00;2.58;;;;;;;;;;5018973;28;90275;-72
2023/07/01 01:26:36;;;;;;;7.80;2.38;;;;;;;;;;5019307;28;88015;-72
2023/07/01 01:29:06;;;;;;;9.90;2.73;;;;;;;;;;5019199;28;89151;-72
2023/07/01 01:31:33;;;;;;;8.38;2.80;;;;;;;;;;5018987;28;89104;-71
2023/07/01 01:33:59;;;;;;;11.40;2.95;;;;;;;;;;5018179;28;88757;-72
2023/07/01 01:36:41;;;;;;;12.15;2.63;;;;;;;;;;5019017;28;89586;-72
2023/07/01 01:39:08;;;;;;;8.80;2.60;;;;;;;;;;5018952;28;89188;-72
2023/07/01 01:41:55;;;;;;;11.25;2.40;;;;;;;;;;5018814;28;88364;-71
2023/07/01 01:44:27;;;;;;;12.57;3.13;;;;;;;;;;5021613;28;89869;-71
2023/07/01 01:46:55;;;;;;;12.82;2.70;;;;;;;;;;5019321;28;89268;-71
2023/07/01 01:49:21;;;;;;;6.35;2.70;;;;;;;;;;5017914;28;88978;-71
2023/07/01 01:51:48;;;;;;;15.13;3.25;;;;;;;;;;5019001;28;88162;-71
2023/07/01 01:54:14;;;;;;;4.88;2.35;;;;;;;;;;5018509;28;88070;-72
2023/07/01 01:56:41;;;;;;;10.60;2.65;;;;;;;;;;5018704;28;88971;-71
2023/07/01 01:59:07;;;;;;;8.90;3.17;;;;;;;;;;5018415;28;89610;-72
2023/07/01 02:01:35;;;;;;;10.60;2.72;;;;;;;;;;5018398;28;88328;-72
2023/07/01 02:04:02;;;;;;;5.43;2.55;;;;;;;;;;5018701;28;88777;-71
2023/07/01 02:06:28;;;;;;;9.45;2.80;;;;;;;;;;5021331;28;90363;-72
2023/07/01 02:08:55;;;;;;;21.73;3.20;;;;;;;;;;5018322;28;88624;-72
2023/07/01 02:11:21;;;;;;;9.27;2.90;;;;;;;;;;5018401;28;88973;-71
2023/07/01 02:13:47;;;;;;;7.75;2.88;;;;;;;;;;5018511;28;88279;-72
2023/07/01 02:16:14;;;;;;;9.60;3.38;;;;;;;;;;5021019;28;88868;-71
2023/07/01 02:18:41;;;;;;;12.57;3.38;;;;;;;;;;5038480;27;89052;-72
2023/07/01 02:21:07;;;;;;;10.30;2.63;;;;;;;;;;5038038;27;88217;-72
2023/07/01 02:23:33;;;;;;;10.98;2.90;;;;;;;;;;5037914;27;89074;-72
2023/07/01 02:26:00;;;;;;;10.40;2.58;;;;;;;;;;5037802;27;88811;-71
2023/07/01 02:28:26;;;;;;;11.90;2.67;;;;;;;;;;5041624;28;88931;-72
2023/07/01 02:30:54;;;;;;;9.13;3.00;;;;;;;;;;5038195;27;89378;-72
2023/07/01 02:33:23;;;;;;;;;;;;;;;;;;5038987;27;88180;-72
2023/07/01 02:35:49;;;;;;;11.65;3.08;;;;;;;;;;5038856;28;119085;-72
2023/07/01 02:38:16;;;;;;;6.07;2.47;;;;;;;;;;5038000;27;89244;-71
2023/07/01 02:40:42;;;;;;;6.78;2.78;;;;;;;;;;5038908;28;88917;-72
2023/07/01 02:43:09;;;;;;;7.97;2.80;;;;;;;;;;5038222;27;88450;-72
2023/07/01 02:45:35;;;;;;;7.75;2.60;;;;;;;;;;5037835;27;89411;-72
2023/07/01 02:48:02;;;;;;;6.72;2.83;;;;;;;;;;5018758;28;89067;-71
2023/07/01 02:50:29;;;;;;;9.05;3.30;;;;;;;;;;5019576;28;92189;-72
2023/07/01 02:52:55;;;;;;;8.70;3.28;;;;;;;;;;5017806;28;88368;-72
2023/07/01 02:55:23;;;;;;;9.00;3.17;;;;;;;;;;5017834;28;88730;-72
2023/07/01 02:57:50;;;;;;;11.73;2.42;;;;;;;;;;5017953;28;88010;-71
2023/07/01 03:00:18;;;;;;;12.23;3.45;;;;;;;;;;5016077;28;88165;-72
2023/07/01 03:02:44;;;;;;;7.85;3.22;;;;;;;;;;5017403;28;88857;-72
2023/07/01 03:05:12;;;;;;;12.68;2.83;;;;;;;;;;5018120;28;88257;-71
2023/07/01 03:07:38;;;;;;;7.88;2.45;;;;;;;;;;5017440;28;88109;-72
2023/07/01 03:10:06;;;;;;;11.77;3.33;;;;;;;;;;5020476;28;89180;-71
2023/07/01 03:12:32;;;;;;;10.80;2.60;;;;;;;;;;5016912;28;88727;-71
2023/07/01 03:14:59;;;;;;;8.60;3.03;;;;;;;;;;5017076;28;88282;-71
2023/07/01 03:17:25;;;;;;;8.38;2.65;;;;;;;;;;5017983;28;92345;-72
2023/07/01 03:19:52;;;;;;;10.07;3.30;;;;;;;;;;5017809;28;88838;-72
2023/07/01 03:22:18;;;;;;;7.00;2.55;;;;;;;;;;5017426;28;88164;-71
2023/07/01 03:24:44;;;;;;;9.43;2.95;;;;;;;;;;5017205;28;89011;-71
2023/07/01 03:27:11;;;;;;;7.40;3.00;;;;;;;;;;5017350;28;87927;-72
2023/07/01 03:29:37;;;;;;;7.30;2.95;;;;;;;;;;5017633;28;89228;-71
2023/07/01 03:32:04;;;;;;;9.00;2.90;;;;;;;;;;5020230;28;90066;-72
2023/07/01 03:34:30;;;;;;;6.13;2.78;;;;;;;;;;5017369;28;89879;-71
2023/07/01 03:36:57;;;;;;;5.50;2.50;;;;;;;;;;5016313;28;90999;-71
2023/07/01 03:39:23;;;;;;;5.53;2.70;;;;;;;;;;5017361;28;88002;-71
2023/07/01 03:41:50;;;;;;;7.55;3.05;;;;;;;;;;5017072;28;89851;-71
2023/07/01 03:44:16;;;;;;;7.35;2.95;;;;;;;;;;5017101;28;91395;-72
2023/07/01 03:46:42;;;;;;;9.60;2.92;;;;;;;;;;5016216;28;88345;-72
2023/07/01 03:49:09;;;;;;;9.85;3.03;;;;;;;;;;5016860;28;88931;-71
2023/07/01 03:51:35;;;;;;;14.77;3.10;;;;;;;;;;5016724;28;89397;-71
2023/07/01 03:54:01;;;;;;;5.28;2.70;;;;;;;;;;5020303;28;88044;-71
2023/07/01 03:56:28;;;;;;;5.60;2.65;;;;;;;;;;5016929;28;89323;-72
2023/07/01 03:58:54;;;;;;;4.03;2.75;;;;;;;;;;5016341;28;88101;-71
2023/07/01 04:01:23;;;;;;;8.20;2.72;;;;;;;;;;5016476;28;89157;-71
2023/07/01 04:03:53;;;;;;;9.90;3.35;;;;;;;;;;5016842;28;89353;-71
2023/07/01 04:06:19;;;;;;;8.10;2.78;;;;;;;;;;5016610;28;87945;-71
2023/07/01 04:08:46;;;;;;;6.13;2.72;;;;;;;;;;5017173;28;89837;-71
2023/07/01 04:11:12;;;;;;;6.28;3.35;;;;;;;;;;5016584;28;89145;-71
2023/07/01 04:13:39;;;;;;;7.97;3.00;;;;;;;;;;5016110;28;88528;-71
2023/07/01 04:16:05;;;;;;;8.60;3.38;;;;;;;;;;5019849;28;88820;-71
2023/07/01 04:18:31;;;;;;;8.18;3.28;;;;;;;;;;5017011;28;87329;-71
2023/07/01 04:20:58;;;;;;;4.32;2.80;;;;;;;;;;5016414;28;88414;-71
2023/07/01 04:23:24;;;;;;;7.75;3.10;;;;;;;;;;5016275;28;89012;-71
2023/07/01 04:25:50;;;;;;;4.25;2.95;;;;;;;;;;5016988;28;88741;-72
2023/07/01 04:28:17;;;;;;;8.88;3.20;;;;;;;;;;5020291;28;89938;-71
2023/07/01 04:30:43;;;;;;;9.20;2.90;;;;;;;;;;5019716;28;88119;-71
2023/07/01 04:33:11;;;;;;;5.72;3.00;;;;;;;;;;5019949;28;88115;-73
2023/07/01 04:35:38;;;;;;;9.93;2.80;;;;;;;;;;5019776;28;88638;-71
2023/07/01 04:38:04;;;;;;;4.75;3.25;;;;;;;;;;5021138;28;89069;-71
2023/07/01 04:40:31;;;;;;;7.72;3.45;;;;;;;;;;5019827;28;89927;-71
2023/07/01 04:42:57;;;;;;;9.20;4.40;;;;;;;;;;5020128;28;88459;-71
2023/07/01 04:45:23;;;;;;;6.75;4.30;;;;;;;;;;5019449;28;88042;-72
2023/07/01 04:47:50;;;;;;;9.50;4.43;;;;;;;;;;5019960;28;89135;-71
2023/07/01 04:50:17;;;;;;;6.35;3.95;;;;;;;;;;5018915;28;89722;-71
2023/07/01 04:52:43;;;;;;;12.25;3.83;;;;;;;;;;5019648;28;88048;-72
2023/07/01 04:55:10;;;;;;;7.65;3.22;;;;;;;;;;5019189;28;88349;-71
2023/07/01 04:57:37;;;;;;;11.95;3.72;;;;;;;;;;5019335;28;89228;-71
2023/07/01 05:00:05;;;;;;;19.83;4.57;;;;;;;;;;5022382;28;88034;-72
2023/07/01 05:02:31;;;;;;;7.68;4.22;;;;;;;;;;5019566;28;90221;-71
2023/07/01 05:04:58;;;;;;;7.45;3.80;;;;;;;;;;5019289;28;88275;-71
2023/07/01 05:07:25;;;;;;;7.97;3.60;;;;;;;;;;5019626;28;88983;-72
2023/07/01 05:09:51;;;;;;;9.82;4.15;;;;;;;;;;5019317;28;88847;-72
2023/07/01 05:12:18;;;;;;;8.25;3.45;;;;;;;;;;5019205;28;88189;-71
2023/07/01 05:14:44;;;;;;;4.72;4.03;;;;;;;;;;5019011;28;88698;-71
2023/07/01 05:17:10;;;;;;;6.68;4.35;;;;;;;;;;5019028;28;89018;-71
2023/07/01 05:19:36;;;;;;;7.30;4.03;;;;;;;;;;5021900;28;88271;-71
2023/07/01 05:22:03;;;;;;;8.15;3.97;;;;;;;;;;5019367;28;88028;-71
2023/07/01 05:24:29;;;;;;;5.55;4.30;;;;;;;;;;5018731;28;88095;-71
2023/07/01 05:26:56;;;;;;;9.60;4.70;;;;;;;;;;5018846;28;88773;-71
2023/07/01 05:29:24;;;;;;;8.50;4.60;;;;;;;;;;5019172;28;89526;-71
2023/07/01 05:31:52;;;;;;;6.00;4.43;;;;;;;;;;5019483;28;87869;-71
2023/07/01 05:34:18;;;;;;;8.15;4.10;;;;;;;;;;5018711;28;87996;-72
2023/07/01 05:36:44;;;;;;;4.78;4.10;;;;;;;;;;5017893;28;88715;-71
2023/07/01 05:39:11;;;;;;;4.93;3.80;;;;;;;;;;5018338;28;89154;-71
2023/07/01 05:41:37;;;;;;;6.13;4.50;;;;;;;;;;5022138;28;89363;-72
2023/07/01 05:44:04;;;;;;;5.35;3.97;;;;;;;;;;5018361;28;88270;-71
2023/07/01 05:46:30;;;;;;;5.60;3.78;;;;;;;;;;5014332;28;89747;-71
2023/07/01 05:48:57;;;;;;;6.65;4.05;;;;;;;;;;4998734;28;90006;-71
2023/07/01 05:51:23;;;;;;;6.35;4.25;;;;;;;;;;4998350;28;88019;-71
2023/07/01 05:53:49;;;;;;;5.57;3.60;;;;;;;;;;5008826;28;88802;-72
2023/07/01 05:56:16;;;;;;;6.05;4.15;;;;;;;;;;5019207;28;90657;-71
2023/07/01 05:58:42;;;;;;;5.20;3.80;;;;;;;;;;5018700;28;88912;-71
2023/07/01 06:01:09;;;;;;;6.57;4.28;;;;;;;;;;5016849;28;88859;-71
2023/07/01 06:03:35;;;;;;;4.20;3.60;;;;;;;;;;5019438;28;89906;-72
2023/07/01 06:06:02;;;;;;;5.75;4.07;;;;;;;;;;5018576;28;89188;-71
2023/07/01 06:08:28;;;;;;;6.47;3.65;;;;;;;;;;5016846;28;89211;-72
2023/07/01 06:10:54;;;;;;;4.47;4.00;;;;;;;;;;5018246;28;88035;-71
2023/07/01 06:13:21;;;;;;;7.45;4.20;;;;;;;;;;5018425;28;88887;-71
2023/07/01 06:15:47;;;;;;;4.00;3.58;;;;;;;;;;5018427;28;91025;-71
2023/07/01 06:18:14;;;;;;;3.95;3.55;;;;;;;;;;5018247;28;88080;-72
2023/07/01 06:20:40;;;;;;;4.10;3.70;;;;;;;;;;5018391;28;88610;-72
2023/07/01 06:23:06;;;;;;;7.07;3.85;;;;;;;;;;5018403;28;89011;-70
2023/07/01 06:25:33;;;;;;;6.13;3.90;;;;;;;;;;5020642;28;87987;-71
2023/07/01 06:27:59;;;;;;;7.38;4.13;;;;;;;;;;5017552;28;90944;-71
2023/07/01 06:30:25;;;;;;;4.80;4.30;;;;;;;;;;5017957;28;87998;-72
2023/07/01 06:32:52;;;;;;;5.60;4.38;;;;;;;;;;5017863;28;88868;-71
2023/07/01 06:35:19;;;;;;;4.65;4.07;;;;;;;;;;5017776;28;88903;-71
2023/07/01 06:37:45;;;;;;;4.47;4.07;;;;;;;;;;5017582;28;88381;-71
2023/07/01 06:40:12;;;;;;;7.88;3.88;;;;;;;;;;5017703;28;88823;-71
2023/07/01 06:42:40;;;;;;;4.28;3.88;;;;;;;;;;5017692;28;88898;-71
2023/07/01 06:45:07;;;;;;;4.57;4.18;;;;;;;;;;5018079;28;87810;-71
2023/07/01 06:47:33;;;;;;;6.35;4.53;;;;;;;;;;5020095;28;88096;-72
2023/07/01 06:49:59;;;;;;;5.95;4.28;;;;;;;;;;5017540;28;87945;-72
2023/07/01 06:52:26;;;;;;;6.25;4.35;;;;;;;;;;5017235;28;89007;-72
2023/07/01 06:54:52;;;;;;;5.88;3.97;;;;;;;;;;5017270;28;89188;-72
2023/07/01 06:57:19;;;;;;;4.68;4.28;;;;;;;;;;5016371;28;88105;-72
2023/07/01 06:59:45;;;;;;;9.82;5.10;;;;;;;;;;5017193;28;88997;-72
2023/07/01 07:02:11;;;;;;;5.78;5.18;;;;;;;;;;5017766;28;88890;-72
2023/07/01 07:04:38;;;;;;;9.00;5.85;;;;;;;;;;5017712;28;88030;-72
2023/07/01 07:07:04;;;;;;;6.15;5.28;;;;;;;;;;5017606;28;89836;-71
2023/07/01 07:09:31;;;;;;;5.93;5.30;;;;;;;;;;5020945;28;89331;-72
2023/07/01 07:11:57;;;;;;;6.68;5.60;;;;;;;;;;5017450;28;88522;-72
2023/07/01 07:14:24;;;;;;;5.97;5.38;;;;;;;;;;5017234;28;89191;-72
2023/07/01 07:16:52;;;;;;;8.93;5.88;;;;;;;;;;5017017;28;88705;-72
2023/07/01 07:19:19;;;;;;;7.95;5.85;;;;;;;;;;5017074;28;88298;-72
2023/07/01 07:21:45;;;;;;;11.75;5.15;;;;;;;;;;5016973;28;88073;-72
2023/07/01 07:24:12;;;;;;;9.13;5.63;;;;;;;;;;5017220;28;88291;-71
2023/07/01 07:26:40;;;;;;;6.78;6.03;;;;;;;;;;5016947;28;89858;-71
2023/07/01 07:29:07;;;;;;;7.18;5.68;;;;;;;;;;5019965;28;89099;-71
2023/07/01 07:31:33;;;;;;;6.05;5.55;;;;;;;;;;5015816;28;89805;-72
2023/07/01 07:34:01;;;;;;;6.78;6.18;;;;;;;;;;5017458;28;88254;-71
2023/07/01 07:36:27;;;;;;;10.27;6.30;;;;;;;;;;5017077;28;88230;-72
2023/07/01 07:38:53;;;;;;;8.30;6.13;;;;;;;;;;5015830;28;88759;-72
2023/07/01 07:41:20;;;;;;;7.00;6.30;;;;;;;;;;5016346;28;90002;-72
2023/07/01 07:43:46;;;;;;;9.27;6.82;;;;;;;;;;5016727;28;88052;-72
2023/07/01 07:46:13;;;;;;;9.25;6.50;;;;;;;;;;5017166;28;88806;-72
2023/07/01 07:48:39;;;;;;;7.75;6.88;;;;;;;;;;5016716;28;89026;-72
2023/07/01 07:51:05;;;;;;;10.07;6.88;;;;;;;;;;5019725;28;88236;-71
2023/07/01 07:53:32;;;;;;;7.35;6.70;;;;;;;;;;5016432;28;88151;-72
2023/07/01 07:55:58;;;;;;;7.18;6.47;;;;;;;;;;5016465;28;88472;-72
2023/07/01 07:58:24;;;;;;;8.27;6.72;;;;;;;;;;5016736;28;88783;-72
2023/07/01 08:00:52;;;;;;;7.15;6.45;;;;;;;;;;5019693;28;88952;-72
2023/07/01 08:03:18;;;;;;;7.22;6.53;;;;;;;;;;5020243;28;88077;-72
2023/07/01 08:05:45;;;;;;;7.15;6.45;;;;;;;;;;5020106;28;89505;-72
2023/07/01 08:08:11;;;;;;;6.45;5.85;;;;;;;;;;5020379;28;89299;-72
2023/07/01 08:10:43;;;;;;;7.65;6.75;;;;;;;;;;5020388;28;88937;-72
2023/07/01 08:13:11;;;;;;;7.10;6.15;;;;;;;;;;5022717;28;88032;-71
2023/07/01 08:15:38;;;;;;;6.82;6.25;;;;;;;;;;5020231;28;89299;-71
2023/07/01 08:18:04;;;;;;;5.97;5.47;;;;;;;;;;5018708;28;89000;-71
2023/07/01 08:20:30;;;;;;;5.88;5.30;;;;;;;;;;5017488;28;93896;-71
2023/07/01 08:22:57;;;;;;;6.30;5.70;;;;;;;;;;5017748;28;91709;-71
2023/07/01 08:25:23;;;;;;;6.13;5.53;;;;;;;;;;5016343;28;92492;-71
2023/07/01 08:27:50;;;;;;;6.70;5.85;;;;;;;;;;5016395;28;93457;-71
2023/07/01 08:30:16;;;;;;;5.78;5.18;;;;;;;;;;5015327;28;94855;-73
2023/07/01 08:32:43;;;;;;;4.97;4.68;;;;;;;;;;5016877;28;95558;-73
2023/07/01 08:35:09;;;;;;;5.70;4.85;;;;;;;;;;5019692;28;94370;-73
2023/07/01 08:37:35;;;;;;;8.60;5.32;;;;;;;;;;5016788;28;92973;-73
2023/07/01 08:40:02;;;;;;;5.38;4.88;;;;;;;;;;5016216;28;93512;-73
2023/07/01 08:42:37;;;;;;;7.28;5.03;;;;;;;;;;5016951;28;92352;-73
2023/07/01 08:45:04;;;;;;;5.00;4.50;;;;;;;;;;5016628;28;94235;-73
2023/07/01 08:47:32;;;;;;;4.53;4.13;;;;;;;;;;5017493;28;92810;-73
2023/07/01 08:50:01;;;;;;;4.68;4.28;;;;;;;;;;5016539;28;92693;-73
2023/07/01 08:52:31;;;;;;;4.55;4.15;;;;;;;;;;5017185;28;93034;-73
2023/07/01 08:54:58;;;;;;;4.80;4.30;;;;;;;;;;4994705;28;96880;-73
2023/07/01 08:57:24;;;;;;;8.18;4.32;;;;;;;;;;4999621;28;92512;-73
2023/07/01 08:59:51;;;;;;;4.78;4.38;;;;;;;;;;4996215;28;94602;-73
2023/07/01 09:02:17;;;;;;;4.32;3.97;;;;;;;;;;4995382;28;92496;-73
2023/07/01 09:04:45;;;;;;;4.75;4.35;;;;;;;;;;4996347;28;93344;-72
2023/07/01 09:07:11;;;;;;;5.00;4.60;;;;;;;;;;4996097;28;94472;-72
2023/07/01 09:09:38;;;;;;;4.97;4.50;;;;;;;;;;4996496;28;92421;-73
2023/07/01 09:12:05;;;;;;;5.35;4.88;;;;;;;;;;4994434;28;93235;-72
2023/07/01 09:14:49;;;;;;;5.97;5.32;;;;;;;;;;4996209;28;94764;-73
2023/07/01 09:17:26;;;;;;;6.28;5.72;;;;;;;;;;5007713;28;92410;-72
2023/07/01 09:19:52;;;;;;;6.25;5.65;;;;;;;;;;5017216;28;94745;-72
2023/07/01 09:22:19;;;;;;;6.15;5.55;;;;;;;;;;5014918;28;92499;-72
2023/07/01 09:24:45;;;;;;;6.15;5.65;;;;;;;;;;5016066;28;93046;-72
2023/07/01 09:27:12;;;;;;;7.30;6.60;;;;;;;;;;5015638;28;93473;-72
2023/07/01 09:29:40;;;;;;;8.80;6.40;;;;;;;;;;5016360;28;92368;-72
2023/07/01 09:32:07;;;;;;;14.30;6.55;;;;;;;;;;5015866;28;93090;-73
2023/07/01 09:34:55;;;;;;;8.32;7.10;;;;;;;;;;5015823;28;94759;-72
2023/07/01 09:37:23;;;;;;;7.55;6.95;;;;;;;;;;5016885;28;91813;-73
2023/07/01 09:39:49;;;;;;;9.18;6.78;;;;;;;;;;5018470;28;92625;-73
2023/07/01 09:42:19;;;;;;;7.38;6.70;;;;;;;;;;5015747;28;92442;-72
2023/07/01 09:45:03;;;;;;;8.45;7.55;;;;;;;;;;5012241;28;94882;-72
2023/07/01 09:47:32;;;;;;;8.20;6.95;;;;;;;;;;5016092;28;93421;-73
2023/07/01 09:49:59;;;;;;;7.60;6.90;;;;;;;;;;5015781;28;92620;-73
2023/07/01 09:52:32;;;;;;;7.03;6.43;;;;;;;;;;5015604;28;93329;-73
2023/07/01 09:55:00;;;;;;;6.72;6.20;;;;;;;;;;4995575;28;94333;-72
2023/07/01 09:57:27;;;;;;;7.93;6.75;;;;;;;;;;4995702;28;92450;-73
2023/07/01 09:59:53;;;;;;;7.68;6.97;;;;;;;;;;5010870;28;93220;-73
2023/07/01 10:02:20;;;;;;;6.53;6.00;;;;;;;;;;4998952;28;93191;-73
2023/07/01 10:04:47;;;;;;;7.35;6.65;;;;;;;;;;4995468;28;92429;-72
2023/07/01 10:07:14;;;;;;;7.50;6.80;;;;;;;;;;4995288;28;93485;-72
2023/07/01 10:09:47;;;;;;;10.95;6.32;;;;;;;;;;4993819;28;95187;-73
2023/07/01 10:12:15;;;;;;;6.90;6.30;;;;;;;;;;4995310;28;94404;-73
2023/07/01 10:14:43;;;;;;;6.45;5.95;;;;;;;;;;4995501;28;94369;-73
2023/07/01 10:17:10;;;;;;;12.23;5.95;;;;;;;;;;5005425;28;92932;-72
2023/07/01 10:19:36;;;;;;;6.60;6.00;;;;;;;;;;5015333;28;93545;-73
2023/07/01 10:22:18;;;;;;;7.93;6.38;;;;;;;;;;5014699;28;93452;-73
2023/07/01 10:24:45;;;;;;;5.60;5.20;;;;;;;;;;5018154;28;92443;-73
2023/07/01 10:27:11;;;;;;;6.63;5.30;;;;;;;;;;5015252;28;92688;-73
2023/07/01 10:29:40;;;;;;;6.28;5.63;;;;;;;;;;5015122;28;92522;-73
2023/07/01 10:32:09;;;;;;;6.03;5.53;;;;;;;;;;5015023;28;93147;-73
2023/07/01 10:34:57;;;;;;;5.47;5.07;;;;;;;;;;5013020;28;95728;-73
2023/07/01 10:37:28;;;;;;;5.70;5.20;;;;;;;;;;5010539;28;92535;-73
2023/07/01 10:39:54;;;;;;;8.23;5.65;;;;;;;;;;5014977;28;93310;-72
2023/07/01 10:42:33;;;;;;;14.93;5.30;;;;;;;;;;5014576;28;93599;-73
2023/07/01 10:45:12;;;;;;;5.85;5.00;;;;;;;;;;5014618;28;92431;-73
2023/07/01 10:47:45;;;;;;;7.18;6.05;;;;;;;;;;5016917;28;94429;-73
2023/07/01 10:50:13;;;;;;;11.93;7.03;;;;;;;;;;5014753;28;92489;-72
2023/07/01 10:52:57;;;;;;;3.97;3.33;;;;;;;;;;5015257;28;93167;-73
2023/07/01 10:55:36;;;;;;;2.75;1.75;;;;;;;;;;5014528;28;94403;-74
2023/07/01 10:58:21;;;;;;;2.70;1.92;;;;;;;;;;5014884;28;92387;-73
2023/07/01 11:00:57;;;;;;;3.83;1.75;;;;;;;;;;5012923;28;94878;-74
2023/07/01 11:03:33;;;;;;;3.08;1.67;;;;;;;;;;5014254;28;93490;-74
2023/07/01 11:06:00;;;;;;;2.95;2.38;;;;;;;;;;5014394;28;92397;-74
2023/07/01 11:08:27;;;;;;;3.65;2.88;;;;;;;;;;5014781;28;93629;-74
2023/07/01 11:10:53;;;;;;;3.13;2.83;;;;;;;;;;5017225;28;93219;-74
2023/07/01 11:13:20;;;;;;;2.83;2.47;;;;;;;;;;5014396;28;92369;-74
2023/07/01 11:16:00;;;;;;;3.40;3.10;;;;;;;;;;5014199;28;93463;-74
2023/07/01 11:18:42;;;;;;;5.37;2.53;;;;;;;;;;4994606;28;91703;-74
2023/07/01 11:21:10;;;;;;;6.72;3.33;;;;;;;;;;4994173;28;93170;-74
2023/07/01 11:23:37;;;;;;;4.75;3.30;;;;;;;;;;4992805;28;92382;-73
2023/07/01 11:26:03;;;;;;;9.32;3.47;;;;;;;;;;4992316;28;95221;-74
2023/07/01 11:28:30;;;;;;;5.38;3.45;;;;;;;;;;4994445;28;96619;-73
2023/07/01 11:31:08;;;;;;;4.53;3.30;;;;;;;;;;4993804;28;93353;-74
2023/07/01 11:33:34;;;;;;;4.18;3.67;;;;;;;;;;4997095;28;92367;-74
2023/07/01 11:36:01;;;;;;;5.15;4.22;;;;;;;;;;4993423;28;93792;-74
2023/07/01 11:38:27;;;;;;;4.30;3.90;;;;;;;;;;4994043;28;92481;-74
2023/07/01 11:40:53;;;;;;;9.75;4.90;;;;;;;;;;4993658;28;92362;-73
2023/07/01 11:43:21;;;;;;;8.75;4.72;;;;;;;;;;4994175;28;92866;-74
2023/07/01 11:45:50;;;;;;;5.80;4.38;;;;;;;;;;4994215;28;92911;-73
2023/07/01 11:48:28;;;;;;;6.30;3.67;;;;;;;;;;5013683;28;93172;-74
2023/07/01 11:50:57;;;;;;;4.47;3.00;;;;;;;;;;5012170;28;95840;-73
2023/07/01 11:53:25;;;;;;;7.18;2.92;;;;;;;;;;5016950;28;92511;-73
2023/07/01 11:55:51;;;;;;;3.72;2.83;;;;;;;;;;5013666;28;93206;-73
2023/07/01 11:58:24;;;;;;;5.85;3.17;;;;;;;;;;5014080;28;92552;-74
2023/07/01 12:00:50;;;;;;;6.40;4.03;;;;;;;;;;5013739;28;93429;-74
2023/07/01 12:03:17;;;;;;;3.50;3.20;;;;;;;;;;5013673;28;93992;-74
2023/07/01 12:05:43;;;;;;;7.22;4.30;;;;;;;;;;5012344;28;92436;-74
2023/07/01 12:08:10;;;;;;;7.05;4.32;;;;;;;;;;5013899;28;93134;-74
2023/07/01 12:10:38;;;;;;;6.32;3.90;;;;;;;;;;5013663;28;94396;-73
2023/07/01 12:13:06;;;;;;;6.07;4.10;;;;;;;;;;5013500;28;92533;-73
2023/07/01 12:15:33;;;;;;;6.35;4.32;;;;;;;;;;5015180;28;94837;-73
2023/07/01 12:18:18;;;;;;;8.43;3.97;;;;;;;;;;5013881;28;92492;-74
2023/07/01 12:20:44;;;;;;;5.88;3.80;;;;;;;;;;5013320;28;93617;-73
2023/07/01 12:23:10;;;;;;;5.78;3.63;;;;;;;;;;5013172;28;94454;-72
2023/07/01 12:25:37;;;;;;;9.50;4.20;;;;;;;;;;5013217;28;92471;-73
2023/07/01 12:28:04;;;;;;;15.65;4.40;;;;;;;;;;5013253;28;96004;-73
2023/07/01 12:30:31;;;;;;;14.50;5.15;;;;;;;;;;5013400;28;92595;-72
2023/07/01 12:32:57;;;;;;;7.22;4.35;;;;;;;;;;5014316;28;91664;-72
2023/07/01 12:35:23;;;;;;;11.75;5.40;;;;;;;;;;5013427;28;92772;-73
2023/07/01 12:37:50;;;;;;;8.75;5.78;;;;;;;;;;5016046;28;93458;-72
2023/07/01 12:40:16;;;;;;;11.27;5.43;;;;;;;;;;5010587;28;94787;-73
2023/07/01 12:42:43;;;;;;;6.82;5.10;;;;;;;;;;5013200;28;93528;-73
2023/07/01 12:45:10;;;;;;;14.68;5.60;;;;;;;;;;5013206;28;92434;-72
2023/07/01 12:47:38;;;;;;;7.70;4.43;;;;;;;;;;5015859;28;93330;-74
2023/07/01 12:50:07;;;;;;;7.47;4.57;;;;;;;;;;5016247;28;93489;-74
2023/07/01 12:52:34;;;;;;;5.55;3.95;;;;;;;;;;5016350;28;92493;-74
2023/07/01 12:55:00;;;;;;;6.18;4.50;;;;;;;;;;5016477;28;93263;-72
2023/07/01 12:57:27;;;;;;;9.13;4.80;;;;;;;;;;5016943;28;93687;-73
2023/07/01 12:59:54;;;;;;;9.38;5.10;;;;;;;;;;5019483;28;92444;-72
2023/07/01 13:02:23;;;;;;;10.68;5.07;;;;;;;;;;5016025;28;93712;-73
2023/07/01 13:04:56;;;;;;;8.10;4.95;;;;;;;;;;5014720;28;94796;-72
2023/07/01 13:07:22;;;;;;;8.45;4.97;;;;;;;;;;5016269;28;95490;-72
2023/07/01 13:09:49;;;;;;;10.93;6.03;;;;;;;;;;5016297;28;93821;-73
2023/07/01 13:12:17;;;;;;;9.10;5.80;;;;;;;;;;5016251;28;92449;-73
2023/07/01 13:14:44;;;;;;;10.88;5.53;;;;;;;;;;5016675;28;92958;-72
2023/07/01 13:17:10;;;;;;;10.93;5.30;;;;;;;;;;5015891;28;93620;-73
2023/07/01 13:19:37;;;;;;;8.88;5.80;;;;;;;;;;5016429;28;92409;-72
2023/07/01 13:22:03;;;;;;;12.45;5.50;;;;;;;;;;5019533;28;93169;-72
2023/07/01 13:24:36;;;;;;;11.10;5.55;;;;;;;;;;5016170;28;92622;-71
2023/07/01 13:27:04;;;;;;;10.80;5.78;;;;;;;;;;5015931;28;94499;-72
2023/07/01 13:29:31;;;;;;;8.65;5.38;;;;;;;;;;5013935;28;94889;-71
2023/07/01 13:32:00;;;;;;;12.52;6.60;;;;;;;;;;5015996;28;92584;-71
2023/07/01 13:34:26;;;;;;;6.28;4.95;;;;;;;;;;5014589;28;93233;-71
2023/07/01 13:36:53;;;;;;;10.70;5.18;;;;;;;;;;5015873;28;93662;-72
2023/07/01 13:39:25;;;;;;;8.48;4.72;;;;;;;;;;5015830;28;92626;-72
2023/07/01 13:41:51;;;;;;;9.20;4.63;;;;;;;;;;5018643;28;93826;-72
2023/07/01 13:44:22;;;;;;;7.60;4.35;;;;;;;;;;5015403;28;92427;-72
2023/07/01 13:46:49;;;;;;;8.40;4.13;;;;;;;;;;5016568;28;93351;-72
2023/07/01 13:49:19;;;;;;;6.45;2.92;;;;;;;;;;5015293;28;93931;-72
2023/07/01 13:51:45;;;;;;;5.37;2.43;;;;;;;;;;5015563;28;92406;-73
2023/07/01 13:54:16;;;;;;;5.32;2.22;;;;;;;;;;5014230;28;95051;-73
2023/07/01 13:56:42;;;;;;;6.35;2.25;;;;;;;;;;5015273;28;93543;-72
2023/07/01 13:59:12;;;;;;;4.18;2.15;;;;;;;;;;5015364;28;92480;-74
2023/07/01 14:01:39;;;;;;;5.10;2.13;;;;;;;;;;5015457;28;93081;-73
2023/07/01 14:04:05;;;;;;;2.28;1.88;;;;;;;;;;5018286;28;93452;-73
2023/07/01 14:06:36;;;;;;;6.45;1.55;;;;;;;;;;5015573;28;93505;-73
2023/07/01 14:09:03;;;;;;;5.38;1.52;;;;;;;;;;5015485;28;93808;-72
2023/07/01 14:11:29;;;;;;;3.45;1.42;;;;;;;;;;5014133;28;91800;-72
2023/07/01 14:13:58;;;;;;;6.13;1.38;;;;;;;;;;5015293;28;92572;-72
2023/07/01 14:16:25;;;;;;;5.13;1.80;;;;;;;;;;5015129;28;93402;-72
2023/07/01 14:18:52;;;;;;;10.07;3.10;;;;;;;;;;5012696;28;94977;-72
2023/07/01 14:21:19;;;;;;;7.32;2.88;;;;;;;;;;5014974;28;95747;-72
2023/07/01 14:23:46;;;;;;;4.57;3.30;;;;;;;;;;5014826;28;93558;-73
2023/07/01 14:26:21;;;;;;;4.57;2.97;;;;;;;;;;5017977;28;92561;-73
2023/07/01 14:28:48;;;;;;;6.30;2.70;;;;;;;;;;5014949;28;93583;-73
2023/07/01 14:31:17;;;;;;;5.35;3.33;;;;;;;;;;5015057;28;92453;-73
2023/07/01 14:33:54;;;;;;;4.80;2.70;;;;;;;;;;5015032;28;93081;-73
2023/07/01 14:36:24;;;;;;;4.68;3.03;;;;;;;;;;5013636;28;93713;-73
2023/07/01 14:38:50;;;;;;;7.97;2.70;;;;;;;;;;5014737;28;92418;-73
2023/07/01 14:41:19;;;;;;;6.90;2.20;;;;;;;;;;5015041;28;93154;-73
2023/07/01 14:43:47;;;;;;;5.65;2.15;;;;;;;;;;5012863;28;95959;-73